Time;durP1;ratioP1;P1;durP2;ratioP2;P2;SDS_P1;SDS_P2;PMS_P1;PMS_P2;Temp;Humidity;BMP_temperature;BMP_pressure;BME280_temperature;BME280_humidity;BME280_pressure;Samples;Min_cycle;Max_cycle;Signal;HPM_P1;HPM_P2
2022/04/25 00:01:53;;;;;;;9.02;1.73;;;10.90;99.90;;;;;;5071150;28;20041;-69
2022/04/25 00:04:58;;;;;;;12.65;2.00;;;10.90;99.90;;;;;;5070949;28;20498;-69
2022/04/25 00:08:02;;;;;;;10.40;2.17;;;10.90;99.90;;;;;;5070956;28;20395;-69
2022/04/25 00:11:06;;;;;;;5.03;1.60;;;10.90;99.90;;;;;;5071222;28;20044;-69
2022/04/25 00:14:11;;;;;;;8.57;2.58;;;10.80;99.90;;;;;;5070762;28;20045;-69
2022/04/25 00:17:15;;;;;;;8.63;2.75;;;10.70;99.90;;;;;;5070732;28;20036;-69
2022/04/25 00:20:19;;;;;;;8.10;1.98;;;10.70;99.90;;;;;;5070733;28;20060;-69
2022/04/25 00:23:24;;;;;;;7.90;1.80;;;10.70;99.90;;;;;;5070769;28;20051;-69
2022/04/25 00:26:28;;;;;;;9.60;1.70;;;10.70;99.90;;;;;;5057771;28;20044;-69
2022/04/25 00:29:32;;;;;;;11.52;2.50;;;10.70;99.90;;;;;;5058414;28;20411;-69
2022/04/25 00:32:36;;;;;;;8.23;1.98;;;10.80;99.90;;;;;;5070136;28;20497;-69
2022/04/25 00:35:40;;;;;;;9.15;1.98;;;10.80;99.90;;;;;;5070434;28;20036;-69
2022/04/25 00:38:44;;;;;;;9.85;1.95;;;10.80;99.90;;;;;;5070441;28;20059;-69
2022/04/25 00:41:49;;;;;;;8.90;2.42;;;10.80;99.90;;;;;;5070593;28;20043;-69
2022/04/25 00:44:53;;;;;;;7.00;2.30;;;10.50;99.90;;;;;;5070371;28;20067;-69
2022/04/25 00:47:58;;;;;;;7.88;2.20;;;10.40;99.90;;;;;;5070357;28;20386;-69
2022/04/25 00:51:03;;;;;;;7.80;2.40;;;10.40;99.90;;;;;;5070105;28;20037;-69
2022/04/25 00:54:07;;;;;;;6.78;2.03;;;10.40;99.90;;;;;;5070463;28;20039;-69
2022/04/25 00:57:12;;;;;;;12.82;4.38;;;10.50;99.90;;;;;;5070118;28;20071;-70
2022/04/25 01:00:16;;;;;;;10.45;3.00;;;10.50;99.90;;;;;;5070304;28;20410;-69
2022/04/25 01:03:20;;;;;;;14.75;2.50;;;10.50;99.90;;;;;;5070380;28;20053;-69
2022/04/25 01:06:24;;;;;;;13.80;3.00;;;10.50;99.90;;;;;;5057666;28;20043;-69
2022/04/25 01:09:28;;;;;;;13.38;3.13;;;10.60;99.90;;;;;;5070216;28;20059;-69
2022/04/25 01:12:33;;;;;;;10.57;2.95;;;10.60;99.90;;;;;;5070466;28;20036;-69
2022/04/25 01:15:36;;;;;;;11.48;3.20;;;10.60;99.90;;;;;;5070372;28;20518;-69
2022/04/25 01:18:40;;;;;;;19.75;6.30;;;10.60;99.90;;;;;;5070326;28;20136;-69
2022/04/25 01:21:50;;;;;;;15.13;5.40;;;10.60;99.90;;;;;;5070540;28;20052;-69
2022/04/25 01:28:18;;;;;;;6.65;2.40;;;10.60;99.90;;;;;;5069724;28;20438;-69
2022/04/25 01:31:22;;;;;;;7.90;2.97;;;10.70;99.90;;;;;;5069880;28;20048;-69
2022/04/25 01:34:27;;;;;;;10.57;2.25;;;10.70;99.90;;;;;;5069571;28;20048;-69
2022/04/25 01:37:31;;;;;;;7.95;3.13;;;10.70;99.90;;;;;;5069832;28;20044;-69
2022/04/25 01:40:35;;;;;;;13.77;6.75;;;10.70;99.90;;;;;;5069291;28;20036;-69
2022/04/25 01:43:39;;;;;;;11.75;7.25;;;10.70;99.90;;;;;;5073515;28;20051;-69
2022/04/25 01:46:43;;;;;;;15.07;8.50;;;10.70;99.90;;;;;;5073508;28;20044;-69
2022/04/25 01:49:48;;;;;;;16.17;5.00;;;10.70;99.90;;;;;;5073437;28;20047;-69
2022/04/25 01:52:52;;;;;;;8.95;3.55;;;10.80;99.90;;;;;;5073828;28;20052;-69
2022/04/25 01:55:56;;;;;;;15.10;9.32;;;10.80;99.90;;;;;;5074535;28;20498;-69
2022/04/25 01:59:00;;;;;;;13.73;7.00;;;10.80;99.90;;;;;;5073766;28;20044;-69
2022/04/25 02:02:04;;;;;;;11.18;3.33;;;10.80;99.90;;;;;;5073853;28;20047;-69
2022/04/25 02:05:09;;;;;;;11.63;7.65;;;10.80;99.90;;;;;;5073316;28;20043;-69
2022/04/25 02:08:14;;;;;;;11.05;6.35;;;10.80;99.90;;;;;;5073104;28;20048;-69
2022/04/25 02:11:21;;;;;;;7.68;3.05;;;10.90;99.90;;;;;;5073352;28;20051;-69
2022/04/25 02:14:29;;;;;;;10.45;4.40;;;10.90;99.90;;;;;;5073318;28;20043;-69
2022/04/25 02:17:33;;;;;;;7.57;4.88;;;10.90;99.90;;;;;;5073028;28;20043;-69
2022/04/25 02:20:37;;;;;;;12.35;6.85;;;10.90;99.90;;;;;;5073215;28;20055;-69
2022/04/25 02:23:41;;;;;;;7.13;4.03;;;10.90;99.90;;;;;;5073363;28;20501;-69
2022/04/25 02:26:48;;;;;;;6.63;3.63;;;10.90;99.90;;;;;;5073021;28;20043;-69
2022/04/25 02:29:57;;;;;;;8.98;4.55;;;10.90;99.90;;;;;;5072973;28;20040;-69
2022/04/25 02:33:01;;;;;;;14.60;6.93;;;10.80;99.90;;;;;;5073006;28;20481;-69
2022/04/25 02:36:05;;;;;;;179.77;14.30;;;10.50;99.90;;;;;;5072396;28;20497;-69
2022/04/25 02:39:09;;;;;;;666.13;39.75;;;10.30;99.90;;;;;;5072924;28;20044;-69
2022/04/25 02:42:13;;;;;;;480.83;35.90;;;10.10;99.90;;;;;;5072374;28;20051;-68
2022/04/25 02:45:18;;;;;;;540.13;44.58;;;10.10;99.90;;;;;;5072972;28;20071;-69
2022/04/25 02:48:22;;;;;;;978.95;55.33;;;10.10;99.90;;;;;;5072571;28;20040;-69
2022/04/25 02:51:25;;;;;;;1198.55;73.22;;;10.00;99.90;;;;;;5072535;28;20036;-69
2022/04/25 02:54:29;;;;;;;242.35;23.63;;;9.90;99.90;;;;;;5071741;28;20039;-69
2022/04/25 02:57:33;;;;;;;64.63;16.92;;;9.90;99.90;;;;;;5072367;28;20047;-69
2022/04/25 03:00:37;;;;;;;359.13;29.88;;;10.00;99.90;;;;;;5072590;28;20064;-69
2022/04/25 03:03:41;;;;;;;255.30;22.13;;;10.10;99.90;;;;;;5072621;28;20394;-69
2022/04/25 03:06:45;;;;;;;240.65;21.52;;;10.10;99.90;;;;;;5072006;28;20063;-69
2022/04/25 03:09:49;;;;;;;381.42;29.33;;;10.10;99.90;;;;;;5072150;28;20043;-69
2022/04/25 03:12:53;;;;;;;378.98;30.05;;;10.10;99.90;;;;;;5072312;28;20059;-68
2022/04/25 03:15:57;;;;;;;30.98;13.35;;;10.10;99.90;;;;;;5072069;28;20391;-69
2022/04/25 03:19:01;;;;;;;48.85;13.57;;;10.20;99.90;;;;;;5071725;28;20040;-69
2022/04/25 03:22:06;;;;;;;101.32;15.48;;;10.30;99.90;;;;;;5072076;28;20509;-69
2022/04/25 03:25:09;;;;;;;17.98;11.95;;;10.30;99.90;;;;;;5071607;28;20399;-69
2022/04/25 03:28:14;;;;;;;20.13;12.23;;;10.30;99.90;;;;;;5071985;28;20047;-69
2022/04/25 03:31:18;;;;;;;18.75;9.98;;;10.30;99.90;;;;;;5071777;28;20070;-69
2022/04/25 03:34:22;;;;;;;17.40;9.82;;;10.40;99.90;;;;;;5072184;28;20047;-69
2022/04/25 03:37:26;;;;;;;16.38;9.80;;;10.40;99.90;;;;;;5071689;28;20043;-69
2022/04/25 03:40:30;;;;;;;15.48;10.10;;;10.30;99.90;;;;;;5072042;28;20063;-69
2022/04/25 03:43:35;;;;;;;13.73;8.30;;;10.30;99.90;;;;;;5071811;28;20407;-69
2022/04/25 03:46:39;;;;;;;11.10;7.28;;;10.30;99.90;;;;;;5071662;28;20056;-68
2022/04/25 03:49:43;;;;;;;12.60;6.65;;;10.30;99.90;;;;;;5071945;28;20052;-69
2022/04/25 03:52:47;;;;;;;10.35;5.63;;;10.20;99.90;;;;;;5071921;28;20048;-69
2022/04/25 03:59:15;;;;;;;9.18;4.93;;;10.30;99.90;;;;;;5071692;28;20048;-69
2022/04/25 04:02:19;;;;;;;9.75;4.53;;;10.30;99.90;;;;;;5071243;28;20048;-70
2022/04/25 04:05:24;;;;;;;8.70;4.07;;;10.30;99.90;;;;;;5070684;28;20047;-69
2022/04/25 04:08:28;;;;;;;7.70;3.95;;;10.40;99.90;;;;;;5071066;28;20051;-70
2022/04/25 04:11:46;;;;;;;9.43;3.55;;;10.40;99.90;;;;;;5071082;28;20222;-69
2022/04/25 04:14:51;;;;;;;5.85;3.42;;;10.50;99.90;;;;;;5071449;28;20043;-70
2022/04/25 04:17:54;;;;;;;5.60;3.10;;;10.50;99.90;;;;;;5071104;28;20383;-70
2022/04/25 04:20:58;;;;;;;4.38;3.45;;;10.50;99.90;;;;;;5070840;28;20047;-70
2022/04/25 04:24:03;;;;;;;5.68;3.30;;;10.50;99.90;;;;;;5070447;28;20046;-69
2022/04/25 04:27:08;;;;;;;243.88;16.83;;;10.60;99.90;;;;;;5070522;28;20073;-69
2022/04/25 04:30:13;;;;;;;819.95;47.65;;;10.40;99.90;;;;;;5070089;28;20047;-70
2022/04/25 04:33:17;;;;;;;1133.30;64.82;;;10.30;99.90;;;;;;5070994;28;20255;-70
2022/04/25 04:36:22;;;;;;;267.17;23.55;;;10.10;99.90;;;;;;5070367;28;20039;-69
2022/04/25 04:39:27;;;;;;;258.88;21.15;;;10.00;99.90;;;;;;5070313;28;20050;-69
2022/04/25 04:42:31;;;;;;;607.47;36.03;;;10.00;99.90;;;;;;5070305;28;20478;-69
2022/04/25 04:45:37;;;;;;;15.65;9.77;;;10.00;99.90;;;;;;5070633;28;20067;-69
2022/04/25 04:48:41;;;;;;;183.98;18.02;;;10.00;99.90;;;;;;5070517;28;20040;-70
2022/04/25 04:51:45;;;;;;;263.98;23.55;;;10.10;99.90;;;;;;5070385;28;20406;-70
2022/04/25 04:54:49;;;;;;;25.35;10.20;;;10.00;99.90;;;;;;5070409;28;20051;-69
2022/04/25 04:57:53;;;;;;;474.00;32.60;;;10.00;99.90;;;;;;5070025;28;20044;-69
2022/04/25 05:00:59;;;;;;;550.47;39.33;;;10.00;99.90;;;;;;5070221;28;20059;-69
2022/04/25 05:04:03;;;;;;;100.75;15.82;;;10.00;99.90;;;;;;5070265;28;20391;-69
2022/04/25 05:07:07;;;;;;;44.17;11.65;;;10.00;99.90;;;;;;5070179;28;20051;-69
2022/04/25 05:10:11;;;;;;;19.80;9.40;;;10.20;99.90;;;;;;5070237;28;20051;-69
2022/04/25 05:13:15;;;;;;;17.40;9.38;;;10.20;99.90;;;;;;5069939;28;20044;-69
2022/04/25 05:16:19;;;;;;;192.15;18.08;;;10.20;99.90;;;;;;5069896;28;20051;-69
2022/04/25 05:19:23;;;;;;;28.85;8.88;;;10.20;99.90;;;;;;5069496;28;20391;-69
2022/04/25 05:22:27;;;;;;;22.73;8.65;;;10.20;99.90;;;;;;5070274;28;20410;-69
2022/04/25 05:25:33;;;;;;;20.02;7.68;;;10.30;99.90;;;;;;5070093;28;20067;-69
2022/04/25 05:28:38;;;;;;;13.73;7.78;;;10.30;99.90;;;;;;5070343;28;20052;-69
2022/04/25 05:31:43;;;;;;;22.95;7.97;;;10.40;99.90;;;;;;5069805;28;20060;-69
2022/04/25 05:34:47;;;;;;;11.52;6.82;;;10.40;99.90;;;;;;5069590;28;20040;-69
2022/04/25 05:37:52;;;;;;;16.58;6.70;;;10.50;99.90;;;;;;5069544;28;20063;-69
2022/04/25 05:40:57;;;;;;;16.27;6.32;;;10.50;99.90;;;;;;5069996;28;20035;-69
2022/04/25 05:44:02;;;;;;;11.20;6.07;;;10.50;99.90;;;;;;5069758;28;20051;-69
2022/04/25 05:47:05;;;;;;;22.63;7.65;;;10.60;99.90;;;;;;5069393;28;20051;-69
2022/04/25 05:53:35;;;;;;;14.52;6.10;;;10.40;99.90;;;;;;5069850;28;20064;-69
2022/04/25 05:56:39;;;;;;;10.15;4.60;;;10.30;99.90;;;;;;5069294;28;20047;-68
2022/04/25 05:59:43;;;;;;;14.32;4.03;;;10.50;99.90;;;;;;5069901;28;20044;-69
2022/04/25 06:02:49;;;;;;;10.02;3.67;;;10.60;99.90;;;;;;5069998;28;20063;-70
2022/04/25 06:05:54;;;;;;;15.70;3.63;;;10.60;99.90;;;;;;5069755;28;20056;-69
2022/04/25 06:08:58;;;;;;;9.35;3.83;;;10.80;99.90;;;;;;5069759;28;20052;-69
2022/04/25 06:12:03;;;;;;;14.10;4.13;;;10.90;99.90;;;;;;5069645;28;20059;-69
2022/04/25 06:15:08;;;;;;;8.98;3.20;;;11.10;99.90;;;;;;5069420;28;20403;-69
2022/04/25 06:18:12;;;;;;;10.50;3.65;;;11.20;99.90;;;;;;5069308;28;20122;-69
2022/04/25 06:21:18;;;;;;;10.52;3.65;;;11.40;99.90;;;;;;5069725;28;20052;-69
2022/04/25 06:24:22;;;;;;;4.45;2.95;;;11.60;99.90;;;;;;5069328;28;20055;-69
2022/04/25 06:27:27;;;;;;;9.38;3.33;;;12.00;99.90;;;;;;5069476;28;20044;-69
2022/04/25 06:30:31;;;;;;;6.38;2.60;;;12.30;99.90;;;;;;5071737;28;20043;-69
2022/04/25 06:33:35;;;;;;;6.97;2.67;;;12.50;99.90;;;;;;5072780;28;20051;-69
2022/04/25 06:36:39;;;;;;;5.65;2.67;;;12.90;99.90;;;;;;5072778;28;20044;-70
2022/04/25 06:39:44;;;;;;;9.75;3.00;;;12.50;99.90;;;;;;5073089;28;20218;-70
2022/04/25 06:42:49;;;;;;;5.70;2.65;;;12.50;99.90;;;;;;5073061;28;20052;-69
2022/04/25 06:45:54;;;;;;;10.82;3.17;;;12.30;99.90;;;;;;5072786;28;20064;-69
2022/04/25 06:52:20;;;;;;;;;;;11.90;99.90;;;;;;5073314;28;20052;-69
2022/04/25 06:55:24;;;;;;;10.00;2.95;;;12.20;99.90;;;;;;5073147;28;20405;-70
2022/04/25 06:58:28;;;;;;;11.43;2.72;;;12.20;99.90;;;;;;5072652;28;20071;-69
2022/04/25 07:01:32;;;;;;;7.20;2.53;;;12.60;99.90;;;;;;5072573;28;20394;-70
2022/04/25 07:04:37;;;;;;;9.60;2.95;;;12.90;99.90;;;;;;5072593;28;20044;-69
2022/04/25 07:07:42;;;;;;;7.35;2.65;;;13.00;99.90;;;;;;5072088;28;20043;-69
2022/04/25 07:10:46;;;;;;;11.40;3.58;;;12.90;99.90;;;;;;5072482;28;20490;-69
2022/04/25 07:13:51;;;;;;;15.57;5.20;;;12.80;99.90;;;;;;5072575;28;20047;-69
2022/04/25 07:16:59;;;;;;;10.98;4.65;;;12.80;99.90;;;;;;5072202;28;20047;-69
2022/04/25 07:20:04;;;;;;;20.52;9.25;;;12.70;99.90;;;;;;5072434;28;20055;-69
2022/04/25 07:29:54;;;;;;;11.00;4.93;;;13.10;99.90;;;;;;5072731;28;20049;-69
2022/04/25 07:32:57;;;;;;;13.93;4.38;;;12.60;99.90;;;;;;5072805;28;20047;-70
2022/04/25 07:36:03;;;;;;;10.52;4.13;;;12.20;99.90;;;;;;5072262;28;20482;-69
2022/04/25 07:39:06;;;;;;;12.25;4.55;;;12.10;99.90;;;;;;5072334;28;20040;-70
2022/04/25 07:42:11;;;;;;;9.00;5.15;;;12.00;99.90;;;;;;5071951;28;20043;-70
2022/04/25 07:45:16;;;;;;;8.57;4.30;;;12.00;99.90;;;;;;5072155;28;20044;-70
2022/04/25 07:48:20;;;;;;;13.07;4.40;;;11.90;99.90;;;;;;5071681;28;20043;-69
2022/04/25 07:51:24;;;;;;;10.07;3.90;;;11.90;99.90;;;;;;5071800;28;20522;-69
2022/04/25 07:54:27;;;;;;;12.20;4.20;;;12.00;99.90;;;;;;5072094;28;20524;-70
2022/04/25 07:57:32;;;;;;;12.05;4.38;;;11.90;99.90;;;;;;5071670;28;20043;-69
2022/04/25 08:00:41;;;;;;;8.77;4.47;;;12.00;99.90;;;;;;5072046;28;20047;-69
2022/04/25 08:03:45;;;;;;;10.48;4.25;;;12.00;99.90;;;;;;5072027;28;20444;-70
2022/04/25 08:06:50;;;;;;;11.60;4.40;;;12.10;99.90;;;;;;5071159;28;20067;-70
2022/04/25 08:09:54;;;;;;;6.75;3.20;;;12.30;99.90;;;;;;5071456;28;20402;-70
2022/04/25 08:19:46;;;;;;;9.48;4.70;;;12.80;99.90;;;;;;5071576;28;20043;-69
2022/04/25 08:22:50;;;;;;;16.42;5.10;;;12.80;99.90;;;;;;5071715;28;20052;-69
2022/04/25 08:25:55;;;;;;;11.55;5.47;;;12.70;99.90;;;;;;5071031;28;20043;-69
2022/04/25 08:28:59;;;;;;;15.05;6.40;;;12.80;99.90;;;;;;5071387;28;20044;-70
2022/04/25 08:32:04;;;;;;;14.75;7.78;;;12.80;99.90;;;;;;5071417;28;20056;-69
2022/04/25 08:35:09;;;;;;;16.63;8.98;;;12.60;99.90;;;;;;5071148;28;20043;-69
2022/04/25 08:38:13;;;;;;;12.18;7.30;;;12.80;99.90;;;;;;5070950;28;20051;-69
2022/04/25 08:41:21;;;;;;;17.15;8.45;;;13.00;99.90;;;;;;5071409;28;20047;-70
2022/04/25 08:44:25;;;;;;;18.88;10.77;;;13.30;99.90;;;;;;5071573;28;20047;-70
2022/04/25 08:47:34;;;;;;;26.20;12.57;;;13.50;99.90;;;;;;5070682;28;20493;-69
2022/04/25 08:50:41;;;;;;;23.92;11.43;;;13.80;99.90;;;;;;5071380;28;20050;-70
2022/04/25 08:53:45;;;;;;;14.23;7.40;;;13.90;99.90;;;;;;5071041;28;20035;-69
2022/04/25 08:56:50;;;;;;;12.70;6.43;;;14.00;99.90;;;;;;5070312;28;20067;-69
2022/04/25 08:59:55;;;;;;;6.90;4.13;;;14.00;99.90;;;;;;5070709;28;20043;-69
2022/04/25 09:02:59;;;;;;;8.68;3.33;;;14.10;99.90;;;;;;5071203;28;20047;-69
2022/04/25 09:06:06;;;;;;;7.15;3.78;;;14.20;99.90;;;;;;5070395;28;20051;-69
2022/04/25 09:09:10;;;;;;;5.25;3.22;;;14.40;99.90;;;;;;5070895;28;20048;-69
2022/04/25 09:12:14;;;;;;;9.77;2.78;;;14.50;99.90;;;;;;5070633;28;20032;-69
2022/04/25 09:15:23;;;;;;;7.47;2.80;;;14.60;99.90;;;;;;5070450;28;20039;-69
2022/04/25 09:18:27;;;;;;;4.03;1.90;;;14.60;99.90;;;;;;5070525;28;20094;-70
2022/04/25 09:21:38;;;;;;;5.78;2.05;;;14.70;99.90;;;;;;5070844;28;20063;-69
2022/04/25 09:24:45;;;;;;;4.88;2.03;;;14.70;99.90;;;;;;5068974;28;20047;-69
2022/04/25 09:28:07;;;;;;;6.30;2.10;;;15.00;99.90;;;;;;5070069;28;20047;-69
2022/04/25 09:31:13;;;;;;;6.75;1.98;;;15.10;99.90;;;;;;5070193;28;20047;-69
2022/04/25 09:34:59;;;;;;;6.03;2.00;;;15.40;99.90;;;;;;5071127;28;20047;-69
2022/04/25 09:37:46;;;;;;;7.43;2.50;;;15.70;99.90;;;;;;5069744;28;20056;-69
2022/04/25 09:40:50;;;;;;;3.55;1.60;;;15.70;99.90;;;;;;5070412;28;20051;-68
2022/04/25 09:43:58;;;;;;;5.68;1.45;;;15.80;99.90;;;;;;5070631;28;20478;-69
2022/04/25 09:47:03;;;;;;;5.00;1.85;;;15.70;99.90;;;;;;5069859;28;20059;-68
2022/04/25 09:50:10;;;;;;;4.50;2.20;;;15.80;99.90;;;;;;5070332;28;20052;-69
2022/04/25 09:53:13;;;;;;;5.05;1.70;;;15.70;99.90;;;;;;5070624;28;20052;-68
2022/04/25 09:56:18;;;;;;;2.88;1.73;;;15.90;99.90;;;;;;5069671;28;20501;-68
2022/04/25 09:59:23;;;;;;;3.55;1.55;;;16.20;99.90;;;;;;5070651;28;20077;-68
2022/04/25 10:02:28;;;;;;;5.10;1.70;;;16.40;99.90;;;;;;5070496;28;20047;-68
2022/04/25 10:05:46;;;;;;;2.78;1.95;;;16.40;99.90;;;;;;5073807;28;20043;-68
2022/04/25 10:08:52;;;;;;;6.88;2.17;;;16.40;99.90;;;;;;5074443;28;20068;-68
2022/04/25 10:12:02;;;;;;;4.78;2.03;;;16.40;99.90;;;;;;5074029;28;20051;-69
2022/04/25 10:15:07;;;;;;;7.20;2.75;;;16.20;99.90;;;;;;5073633;28;20035;-69
2022/04/25 10:18:13;;;;;;;4.78;1.65;;;16.20;99.90;;;;;;5072661;28;20048;-68
2022/04/25 10:21:17;;;;;;;6.95;2.22;;;16.20;99.90;;;;;;5073757;28;20075;-68
2022/04/25 10:24:22;;;;;;;5.43;2.08;;;16.30;99.90;;;;;;5073705;28;20051;-68
2022/04/25 10:27:32;;;;;;;4.50;1.63;;;16.40;99.90;;;;;;5072559;28;20039;-69
2022/04/25 10:30:38;;;;;;;7.28;2.35;;;16.50;99.90;;;;;;5073270;28;20043;-68
2022/04/25 10:34:02;;;;;;;4.55;1.80;;;16.80;99.90;;;;;;5073464;28;20039;-69
2022/04/25 10:37:28;;;;;;;5.97;2.35;;;17.10;99.90;;;;;;5072557;28;20047;-68
2022/04/25 10:44:26;;;;;;;6.00;2.63;;;17.00;99.90;;;;;;5060483;28;20387;-70
2022/04/25 10:47:31;;;;;;;3.78;2.40;;;16.90;99.90;;;;;;5072320;28;20044;-69
2022/04/25 10:51:09;;;;;;;5.60;2.80;;;16.90;99.90;;;;;;5072813;28;20505;-69
2022/04/25 10:54:14;;;;;;;4.47;2.03;;;17.30;99.90;;;;;;5072734;28;20040;-69
2022/04/25 10:57:18;;;;;;;4.63;1.80;;;17.90;99.90;;;;;;5072122;28;20383;-69
2022/04/25 11:00:37;;;;;;;5.30;1.52;;;18.10;99.90;;;;;;5072710;28;20071;-69
2022/04/25 11:04:02;;;;;;;5.63;2.17;;;17.70;99.90;;;;;;5072205;28;20052;-69
2022/04/25 11:07:21;;;;;;;3.88;1.65;;;17.10;99.90;;;;;;5071564;28;20052;-69
2022/04/25 11:10:42;;;;;;;4.07;1.90;;;17.10;99.90;;;;;;5072196;28;20494;-69
2022/04/25 11:13:49;;;;;;;3.90;1.52;;;17.40;99.90;;;;;;5072454;28;20290;-68
2022/04/25 11:17:14;;;;;;;3.75;1.77;;;17.70;99.90;;;;;;5071955;28;20383;-69
2022/04/25 11:20:56;;;;;;;6.10;1.60;;;18.20;99.90;;;;;;5072427;28;20052;-69
2022/04/25 11:24:02;;;;;;;6.75;2.17;;;18.30;99.90;;;;;;5072261;28;20039;-69
2022/04/25 11:27:11;;;;;;;7.47;2.20;;;18.20;99.90;;;;;;5071658;28;20379;-69
2022/04/25 11:30:17;;;;;;;4.93;1.73;;;17.30;99.90;;;;;;5071762;28;20039;-69
2022/04/25 11:33:20;;;;;;;3.47;1.90;;;17.40;99.90;;;;;;5071845;28;20257;-69
2022/04/25 11:36:25;;;;;;;4.38;1.90;;;17.30;99.90;;;;;;5071319;28;20069;-69
2022/04/25 11:42:51;;;;;;;;;;;16.90;99.90;;;;;;5072067;28;20490;-68
2022/04/25 11:45:56;;;;;;;6.38;2.05;;;16.50;99.90;;;;;;5071161;28;19931;-68
2022/04/25 11:49:00;;;;;;;5.88;2.08;;;16.30;99.90;;;;;;5071650;28;20383;-69
2022/04/25 11:52:06;;;;;;;5.18;2.33;;;16.30;99.90;;;;;;5071202;28;20059;-69
2022/04/25 11:55:10;;;;;;;4.15;2.55;;;16.30;99.90;;;;;;5071248;28;20044;-69
2022/04/25 11:58:28;;;;;;;7.95;2.58;;;16.50;99.90;;;;;;5070392;28;20391;-69
2022/04/25 12:01:36;;;;;;;7.50;2.40;;;16.80;99.90;;;;;;5071318;28;20059;-69
2022/04/25 12:04:42;;;;;;;6.57;2.30;;;17.00;99.90;;;;;;5071003;28;20046;-69
2022/04/25 12:18:17;;;;;;;5.57;2.50;;;16.60;99.90;;;;;;5070421;28;20047;-69
2022/04/25 12:21:25;;;;;;;4.20;2.38;;;16.60;99.90;;;;;;5070826;28;20063;-69
2022/04/25 12:24:29;;;;;;;4.57;2.35;;;16.40;99.90;;;;;;5071212;28;20055;-69
2022/04/25 12:27:34;;;;;;;9.55;3.40;;;16.30;99.90;;;;;;5069500;28;20047;-69
2022/04/25 12:30:56;;;;;;;4.80;2.35;;;16.30;99.90;;;;;;5071247;28;20047;-69
2022/04/25 12:34:06;;;;;;;4.65;2.20;;;16.30;99.90;;;;;;5058664;28;20059;-69
2022/04/25 12:37:11;;;;;;;6.05;3.35;;;16.50;99.90;;;;;;5070439;28;20395;-68
2022/04/25 12:40:15;;;;;;;8.50;2.80;;;16.20;99.90;;;;;;5070241;28;20047;-69
2022/04/25 12:43:42;;;;;;;6.30;2.35;;;16.20;99.90;;;;;;5070435;28;20032;-69
2022/04/25 12:46:49;;;;;;;8.90;2.30;;;16.80;99.90;;;;;;5070072;28;20039;-69
2022/04/25 12:49:54;;;;;;;4.90;2.42;;;17.80;99.90;;;;;;5070288;28;20055;-69
2022/04/25 12:52:59;;;;;;;3.97;2.28;;;18.60;99.90;;;;;;5070549;28;20047;-69
2022/04/25 12:56:05;;;;;;;3.78;2.10;;;19.30;99.90;;;;;;5069942;28;20062;-69
2022/04/25 12:59:09;;;;;;;3.03;1.88;;;19.70;99.90;;;;;;5069726;28;20524;-69
2022/04/25 13:02:18;;;;;;;5.85;1.85;;;20.40;99.90;;;;;;5070048;28;20048;-69
2022/04/25 13:05:26;;;;;;;8.52;1.90;;;21.10;99.90;;;;;;5070092;28;20073;-69
2022/04/25 13:08:30;;;;;;;6.07;1.90;;;21.50;99.90;;;;;;5069912;28;20399;-69
2022/04/25 13:11:34;;;;;;;4.30;1.77;;;20.80;99.90;;;;;;5069835;28;20059;-69
2022/04/25 13:14:38;;;;;;;7.38;2.17;;;20.90;99.90;;;;;;5070060;28;20044;-70
2022/04/25 13:17:43;;;;;;;4.75;2.05;;;21.60;99.90;;;;;;5069475;28;20036;-69
2022/04/25 13:20:47;;;;;;;2.85;1.60;;;21.60;99.90;;;;;;5069820;28;20044;-69
2022/04/25 13:23:51;;;;;;;5.30;2.00;;;20.80;99.90;;;;;;5069775;28;20057;-69
2022/04/25 13:26:55;;;;;;;8.98;5.15;;;20.30;99.90;;;;;;5069203;28;20043;-68
2022/04/25 13:29:59;;;;;;;8.48;5.68;;;19.90;99.90;;;;;;5069545;28;20043;-70
2022/04/25 13:33:03;;;;;;;4.03;2.10;;;19.60;99.90;;;;;;5057728;28;20067;-69
2022/04/25 13:36:07;;;;;;;4.88;2.58;;;19.40;99.90;;;;;;5069078;28;20044;-69
2022/04/25 13:39:11;;;;;;;4.45;2.40;;;19.40;99.90;;;;;;5072506;28;20039;-69
2022/04/25 13:42:16;;;;;;;7.20;2.28;;;18.60;99.90;;;;;;5074304;28;20047;-67
2022/04/25 13:45:21;;;;;;;8.05;4.32;;;18.80;99.90;;;;;;5074073;28;20044;-70
2022/04/25 13:48:25;;;;;;;25.00;15.77;;;19.20;99.90;;;;;;5073716;28;20055;-69
2022/04/25 13:51:29;;;;;;;15.48;7.00;;;19.40;99.90;;;;;;5073751;28;20056;-69
2022/04/25 13:54:33;;;;;;;7.90;3.67;;;19.30;99.90;;;;;;5073401;28;20382;-69
2022/04/25 13:57:38;;;;;;;311.50;170.18;;;19.50;99.90;;;;;;5072667;28;20044;-70
2022/04/25 14:00:43;;;;;;;45.63;25.77;;;19.90;99.90;;;;;;5073320;28;20391;-70
2022/04/25 14:03:49;;;;;;;7.88;3.70;;;19.80;99.90;;;;;;5073471;28;20062;-69
2022/04/25 14:06:53;;;;;;;8.50;2.90;;;19.60;99.90;;;;;;5072552;28;20055;-69
2022/04/25 14:09:57;;;;;;;6.28;2.60;;;18.60;99.90;;;;;;5073312;28;20036;-67
2022/04/25 14:13:03;;;;;;;8.30;3.70;;;20.00;99.90;;;;;;5073457;28;20047;-68
2022/04/25 14:16:08;;;;;;;4.03;2.45;;;21.30;99.90;;;;;;5072819;28;20051;-68
2022/04/25 14:19:12;;;;;;;4.30;2.03;;;19.70;99.90;;;;;;5073092;28;20039;-69
2022/04/25 14:22:16;;;;;;;5.72;2.28;;;19.80;99.90;;;;;;5073307;28;20520;-69
2022/04/25 14:25:21;;;;;;;4.28;2.33;;;19.90;99.90;;;;;;5072674;28;20395;-68
2022/04/25 14:28:25;;;;;;;5.43;2.40;;;19.40;99.90;;;;;;5072592;28;20039;-70
2022/04/25 14:31:31;;;;;;;7.63;2.75;;;19.20;99.90;;;;;;5072539;28;20043;-69
2022/04/25 14:34:35;;;;;;;10.88;2.63;;;18.90;99.90;;;;;;5072912;28;20047;-69
2022/04/25 14:37:40;;;;;;;10.15;2.80;;;19.00;99.90;;;;;;5072467;28;20051;-69
2022/04/25 14:40:47;;;;;;;6.97;2.60;;;19.50;99.90;;;;;;5072449;28;20379;-69
2022/04/25 14:43:51;;;;;;;8.73;3.88;;;20.40;99.90;;;;;;5072819;28;20067;-70
2022/04/25 14:46:55;;;;;;;5.88;2.90;;;21.00;99.90;;;;;;5072176;28;20048;-70
2022/04/25 14:56:44;;;;;;;7.18;2.63;;;20.20;99.90;;;;;;5072465;28;20048;-68
2022/04/25 14:59:48;;;;;;;8.95;3.08;;;20.20;99.90;;;;;;5072656;28;20051;-68
2022/04/25 15:02:52;;;;;;;4.75;2.53;;;20.20;99.90;;;;;;5060694;28;20045;-69
2022/04/25 15:05:57;;;;;;;8.75;2.80;;;20.10;99.90;;;;;;5072471;28;20067;-69
2022/04/25 15:09:02;;;;;;;4.82;2.50;;;19.90;99.90;;;;;;5072590;28;20059;-69
2022/04/25 15:12:06;;;;;;;10.43;3.40;;;19.80;99.90;;;;;;5072293;28;20067;-69
2022/04/25 15:15:12;;;;;;;5.80;2.92;;;19.80;99.90;;;;;;5072086;28;20044;-69
2022/04/25 15:18:16;;;;;;;4.82;2.88;;;19.60;99.90;;;;;;5071584;28;20497;-70
2022/04/25 15:21:20;;;;;;;6.18;3.70;;;19.30;99.90;;;;;;5072420;28;20059;-69
2022/04/25 15:24:24;;;;;;;10.60;2.83;;;19.10;99.90;;;;;;5072145;28;20040;-69
2022/04/25 15:27:28;;;;;;;6.25;3.28;;;19.00;99.90;;;;;;5070171;28;20047;-69
2022/04/25 15:30:32;;;;;;;6.28;3.42;;;18.90;99.90;;;;;;5071890;28;20048;-70
2022/04/25 15:33:36;;;;;;;11.00;4.22;;;18.80;99.90;;;;;;5072177;28;20122;-69
2022/04/25 15:36:41;;;;;;;17.48;3.45;;;18.70;99.90;;;;;;5071171;28;20040;-69
2022/04/25 15:39:45;;;;;;;12.43;3.40;;;18.40;99.90;;;;;;5071780;28;20051;-69
2022/04/25 15:42:49;;;;;;;15.18;4.95;;;18.00;99.90;;;;;;5071770;28;20051;-69
2022/04/25 15:45:53;;;;;;;9.35;3.20;;;17.80;99.90;;;;;;5071707;28;20063;-70
2022/04/25 15:48:57;;;;;;;7.80;3.78;;;17.90;99.90;;;;;;5071614;28;20398;-69
2022/04/25 15:52:01;;;;;;;10.40;3.60;;;18.20;99.90;;;;;;5071409;28;20063;-69
2022/04/25 15:58:30;;;;;;;11.48;3.50;;;19.00;99.90;;;;;;5071184;28;20251;-69
2022/04/25 16:01:35;;;;;;;11.23;3.88;;;19.40;99.90;;;;;;5058660;28;20047;-69
2022/04/25 16:04:39;;;;;;;14.32;3.78;;;19.60;99.90;;;;;;5071005;28;20055;-69
2022/04/25 16:07:43;;;;;;;9.48;3.33;;;19.50;99.90;;;;;;5070673;28;20085;-69
2022/04/25 16:10:47;;;;;;;10.77;2.97;;;18.70;99.90;;;;;;5071128;28;20047;-70
2022/04/25 16:13:53;;;;;;;12.13;3.20;;;18.60;99.90;;;;;;5071409;28;20067;-69
2022/04/25 16:16:57;;;;;;;11.00;3.20;;;18.20;99.90;;;;;;5070470;28;20039;-69
2022/04/25 16:20:02;;;;;;;7.82;3.15;;;17.90;99.90;;;;;;5070837;28;20051;-69
2022/04/25 16:23:07;;;;;;;7.95;2.80;;;17.80;99.90;;;;;;5070649;28;20067;-70
2022/04/25 16:26:11;;;;;;;11.43;2.80;;;17.70;99.90;;;;;;5057756;28;20398;-69
2022/04/25 16:29:15;;;;;;;5.95;2.78;;;17.70;99.90;;;;;;5070646;28;20509;-70
2022/04/25 16:32:19;;;;;;;11.23;3.33;;;17.50;99.90;;;;;;5070373;28;20418;-70
2022/04/25 16:35:26;;;;;;;10.98;2.85;;;17.40;99.90;;;;;;5070498;28;20040;-70
2022/04/25 16:38:31;;;;;;;8.10;2.65;;;17.40;99.90;;;;;;5070632;28;20047;-69
2022/04/25 16:41:36;;;;;;;5.50;2.33;;;17.50;99.90;;;;;;5070318;28;20345;-70
2022/04/25 16:44:42;;;;;;;6.22;2.30;;;17.50;99.90;;;;;;5070700;28;20395;-69
2022/04/25 16:47:46;;;;;;;7.13;2.42;;;17.40;99.90;;;;;;5069920;28;20043;-69
2022/04/25 16:50:50;;;;;;;7.32;2.22;;;17.40;99.90;;;;;;5070276;28;20047;-69
2022/04/25 16:53:54;;;;;;;5.40;2.28;;;17.20;99.90;;;;;;5070372;28;20052;-70